createdAt,value
2019-02-24T00:02:01.141Z,26.70
2019-02-24T00:04:29.499Z,26.93
2019-02-24T00:06:57.575Z,26.60
2019-02-24T00:09:25.626Z,24.85
2019-02-24T00:11:54.707Z,25.90
2019-02-24T00:14:24.717Z,26.35
2019-02-24T00:16:55.061Z,27.87
2019-02-24T00:19:24.063Z,26.20
2019-02-24T00:21:52.099Z,27.52
2019-02-24T00:24:23.080Z,27.87
2019-02-24T00:26:51.049Z,29.32
2019-02-24T00:29:22.533Z,25.15
2019-02-24T00:31:50.274Z,25.25
2019-02-24T00:34:18.381Z,29.45
2019-02-24T00:36:47.035Z,27.52
2019-02-24T00:39:17.234Z,29.02
2019-02-24T00:41:45.441Z,30.85
2019-02-24T00:44:15.551Z,29.95
2019-02-24T00:46:44.912Z,30.48
2019-02-24T00:49:14.126Z,31.10
2019-02-24T00:51:42.096Z,26.23
2019-02-24T00:54:10.348Z,28.12
2019-02-24T00:56:38.587Z,29.95
2019-02-24T00:59:06.558Z,27.95
2019-02-24T01:01:40.437Z,32.23
2019-02-24T01:04:08.529Z,28.73
2019-02-24T01:06:36.531Z,31.70
2019-02-24T01:09:06.474Z,28.57
2019-02-24T01:11:36.698Z,28.62
2019-02-24T01:14:05.127Z,30.35
2019-02-24T01:16:34.229Z,28.98
2019-02-24T01:19:02.217Z,28.20
2019-02-24T01:21:30.231Z,30.40
2019-02-24T01:24:03.523Z,31.42
2019-02-24T01:26:33.363Z,34.75
2019-02-24T01:29:01.364Z,26.25
2019-02-24T01:31:29.304Z,26.95
2019-02-24T01:33:58.225Z,26.87
2019-02-24T01:36:28.817Z,25.27
2019-02-24T01:38:57.095Z,26.82
2019-02-24T01:41:26.112Z,26.85
2019-02-24T01:43:54.166Z,26.23
2019-02-24T01:46:25.600Z,27.10
2019-02-24T01:48:53.525Z,25.40
2019-02-24T01:51:23.041Z,25.85
2019-02-24T01:53:51.501Z,28.57
2019-02-24T01:56:23.279Z,28.83
2019-02-24T01:58:51.485Z,28.30
2019-02-24T02:01:20.893Z,27.62
2019-02-24T02:03:59.499Z,27.48
2019-02-24T02:06:29.018Z,24.35
2019-02-24T02:08:58.817Z,26.48
2019-02-24T02:11:33.766Z,29.90
2019-02-24T02:14:01.703Z,29.30
2019-02-24T02:16:30.599Z,28.60
2019-02-24T02:18:59.645Z,27.50
2019-02-24T02:21:27.636Z,26.02
2019-02-24T02:23:56.682Z,27.52
2019-02-24T02:26:24.728Z,26.93
2019-02-24T02:28:53.407Z,27.55
2019-02-24T02:31:21.350Z,31.35
2019-02-24T02:33:49.729Z,27.93
2019-02-24T02:36:18.204Z,28.47
2019-02-24T02:38:46.471Z,23.42
2019-02-24T02:41:14.612Z,26.70
2019-02-24T02:43:45.787Z,27.13
2019-02-24T02:46:14.888Z,28.10
2019-02-24T02:48:44.124Z,26.93
2019-02-24T02:51:12.116Z,27.00
2019-02-24T02:53:42.046Z,26.52
2019-02-24T02:56:13.119Z,28.77
2019-02-24T02:58:42.563Z,27.17
2019-02-24T03:01:10.530Z,29.35
2019-02-24T03:03:39.282Z,27.27
2019-02-24T03:06:41.563Z,27.27
2019-02-24T03:09:11.322Z,25.50
2019-02-24T03:11:43.233Z,29.63
2019-02-24T03:14:11.134Z,29.02
2019-02-24T03:16:39.531Z,28.50
2019-02-24T03:19:07.479Z,30.15
2019-02-24T03:21:35.381Z,25.68
2019-02-24T03:24:03.500Z,27.07
2019-02-24T03:26:32.949Z,25.92
2019-02-24T03:29:04.114Z,26.05
2019-02-24T03:31:31.147Z,25.25
2019-02-24T03:33:59.664Z,27.67
2019-02-24T03:36:27.554Z,27.73
2019-02-24T03:39:04.432Z,27.25
2019-02-24T03:41:34.658Z,29.35
2019-02-24T03:44:04.245Z,30.75
2019-02-24T03:46:32.166Z,28.98
2019-02-24T03:49:00.637Z,25.95
2019-02-24T03:51:29.556Z,30.10
2019-02-24T03:54:00.025Z,28.15
2019-02-24T03:56:27.856Z,29.10
2019-02-24T03:58:57.058Z,27.40
2019-02-24T04:01:24.998Z,25.45
2019-02-24T04:03:53.073Z,31.20
2019-02-24T04:06:21.040Z,30.92
2019-02-24T04:08:51.414Z,26.70
2019-02-24T04:11:19.526Z,29.25
2019-02-24T04:13:47.418Z,26.27
2019-02-24T04:16:15.296Z,26.30
2019-02-24T04:18:43.225Z,29.23
2019-02-24T04:21:11.175Z,28.98
2019-02-24T04:23:39.213Z,26.42
2019-02-24T04:26:07.641Z,24.70
2019-02-24T04:28:35.630Z,27.22
2019-02-24T04:31:04.011Z,29.67
2019-02-24T04:33:32.019Z,29.98
2019-02-24T04:36:00.177Z,25.97
2019-02-24T04:38:29.359Z,28.23
2019-02-24T04:40:57.284Z,27.55
2019-02-24T04:43:25.359Z,26.82
2019-02-24T04:45:53.285Z,25.95
2019-02-24T04:48:21.782Z,24.57
2019-02-24T04:50:49.747Z,25.40
2019-02-24T04:53:17.790Z,24.85
2019-02-24T04:55:45.658Z,29.55
2019-02-24T04:58:18.490Z,25.95
2019-02-24T05:00:47.375Z,25.17
2019-02-24T05:03:15.339Z,29.05
2019-02-24T05:05:43.269Z,25.68
2019-02-24T05:08:12.295Z,25.27
2019-02-24T05:10:40.266Z,26.82
2019-02-24T05:13:08.426Z,31.90
2019-02-24T05:15:39.814Z,29.50
2019-02-24T05:18:08.043Z,26.25
2019-02-24T05:20:35.914Z,26.05
2019-02-24T05:23:03.780Z,26.68
2019-02-24T05:25:34.052Z,29.12
2019-02-24T05:28:07.386Z,27.85
2019-02-24T05:30:35.357Z,28.55
2019-02-24T05:33:03.296Z,27.95
2019-02-24T05:35:32.871Z,26.85
2019-02-24T05:38:02.178Z,27.13
2019-02-24T05:40:30.345Z,28.57
2019-02-24T05:42:59.992Z,26.15
2019-02-24T05:45:33.714Z,26.25
2019-02-24T05:48:02.845Z,28.12
2019-02-24T05:50:30.806Z,26.33
2019-02-24T05:52:58.746Z,25.40
2019-02-24T05:55:28.332Z,27.40
2019-02-24T05:57:56.264Z,27.45
2019-02-24T06:00:25.072Z,30.10
2019-02-24T06:02:55.382Z,27.98
2019-02-24T06:05:23.226Z,27.70
2019-02-24T06:07:51.146Z,29.90
2019-02-24T06:10:21.117Z,28.47
2019-02-24T06:12:50.045Z,29.07
2019-02-24T06:15:17.933Z,24.95
2019-02-24T06:17:45.847Z,27.67
2019-02-24T06:20:13.831Z,29.72
2019-02-24T06:22:42.151Z,27.13
2019-02-24T06:25:10.201Z,28.57
2019-02-24T06:27:38.630Z,26.48
2019-02-24T06:30:08.260Z,27.10
2019-02-24T06:32:37.202Z,28.47
2019-02-24T06:35:05.265Z,25.92
2019-02-24T06:37:33.198Z,26.50
2019-02-24T06:40:02.516Z,27.90
2019-02-24T06:42:31.983Z,26.12
2019-02-24T06:45:00.651Z,25.92
2019-02-24T06:47:30.356Z,28.30
2019-02-24T06:49:59.152Z,26.57
2019-02-24T06:52:28.166Z,32.45
2019-02-24T06:54:57.926Z,28.47
2019-02-24T06:57:25.798Z,27.75
2019-02-24T06:59:54.644Z,27.58
2019-02-24T07:02:22.610Z,24.00
2019-02-24T07:04:53.102Z,24.15
2019-02-24T07:07:22.098Z,27.25
2019-02-24T07:09:50.041Z,24.23
2019-02-24T07:12:19.813Z,26.02
2019-02-24T07:14:47.779Z,26.93
2019-02-24T07:17:15.934Z,24.25
2019-02-24T07:19:43.878Z,25.05
2019-02-24T07:22:11.906Z,27.37
2019-02-24T07:24:44.343Z,25.70
2019-02-24T07:27:12.910Z,22.87
2019-02-24T07:29:42.285Z,26.65
2019-02-24T07:32:11.616Z,23.83
2019-02-24T07:34:40.886Z,24.45
2019-02-24T07:37:19.418Z,24.43
2019-02-24T07:39:48.766Z,23.73
2019-02-24T07:42:16.975Z,24.15
2019-02-24T07:44:44.861Z,23.90
2019-02-24T07:47:12.792Z,25.45
2019-02-24T07:49:40.697Z,25.48
2019-02-24T07:52:08.589Z,25.92
2019-02-24T07:54:36.520Z,23.65
2019-02-24T07:57:04.420Z,25.17
2019-02-24T07:59:32.366Z,21.75
2019-02-24T08:02:00.247Z,24.67
2019-02-24T08:04:28.161Z,23.42
2019-02-24T08:06:56.106Z,24.40
2019-02-24T08:09:24.038Z,23.30
2019-02-24T08:11:51.905Z,22.65
2019-02-24T08:14:19.980Z,24.72
2019-02-24T08:16:47.881Z,25.30
2019-02-24T08:19:15.768Z,22.13
2019-02-24T08:21:43.639Z,23.40
2019-02-24T08:24:11.583Z,24.18
2019-02-24T08:26:39.481Z,25.68
2019-02-24T08:29:07.402Z,25.25
2019-02-24T08:31:35.370Z,28.83
2019-02-24T08:34:03.311Z,25.30
2019-02-24T08:36:31.201Z,24.85
2019-02-24T08:38:59.079Z,25.88
2019-02-24T08:41:26.933Z,25.50
2019-02-24T08:43:54.883Z,25.20
2019-02-24T08:46:23.076Z,25.60
2019-02-24T08:48:50.982Z,26.48
2019-02-24T08:51:18.826Z,26.93
2019-02-24T08:53:46.902Z,23.45
2019-02-24T08:56:14.876Z,23.70
2019-02-24T08:58:42.718Z,25.15
2019-02-24T09:01:10.573Z,26.37
2019-02-24T09:03:38.483Z,26.65
2019-02-24T09:06:06.422Z,25.50
2019-02-24T09:08:34.312Z,25.95
2019-02-24T09:11:02.217Z,27.13
2019-02-24T09:13:30.088Z,24.23
2019-02-24T09:15:57.984Z,23.05
2019-02-24T09:18:26.240Z,24.65
2019-02-24T09:20:54.150Z,27.65
2019-02-24T09:23:22.013Z,24.50
2019-02-24T09:25:49.986Z,25.67
2019-02-24T09:28:17.824Z,24.10
2019-02-24T09:30:45.706Z,24.37
2019-02-24T09:33:13.589Z,22.50
2019-02-24T09:35:41.561Z,23.17
2019-02-24T09:38:09.450Z,21.70
2019-02-24T09:40:37.310Z,22.70
2019-02-24T09:43:05.193Z,23.70
2019-02-24T09:45:33.044Z,24.40
2019-02-24T09:48:00.930Z,24.30
2019-02-24T09:50:28.783Z,24.60
2019-02-24T09:52:56.707Z,22.22
2019-02-24T09:55:24.585Z,21.82
2019-02-24T09:57:52.489Z,21.27
2019-02-24T10:00:21.991Z,21.80
2019-02-24T10:02:50.034Z,22.83
2019-02-24T10:05:17.909Z,23.07
2019-02-24T10:07:45.858Z,22.57
2019-02-24T10:10:14.106Z,22.93
2019-02-24T10:12:41.953Z,22.57
2019-02-24T10:15:09.797Z,23.07
2019-02-24T10:17:37.673Z,22.83
2019-02-24T10:20:05.994Z,21.57
2019-02-24T10:22:33.904Z,21.87
2019-02-24T10:25:01.807Z,22.93
2019-02-24T10:27:29.806Z,19.13
2019-02-24T10:29:57.695Z,20.30
2019-02-24T10:32:25.537Z,20.10
2019-02-24T10:34:53.388Z,19.60
2019-02-24T10:37:21.250Z,18.60
2019-02-24T10:39:49.146Z,16.83
2019-02-24T10:42:17.057Z,17.83
2019-02-24T10:44:44.913Z,17.80
2019-02-24T10:47:12.762Z,16.60
2019-02-24T10:49:40.680Z,17.40
2019-02-24T10:52:08.537Z,17.43
2019-02-24T10:54:36.391Z,17.57
2019-02-24T10:57:04.306Z,16.77
2019-02-24T10:59:32.638Z,17.07
2019-02-24T11:02:00.533Z,17.57
2019-02-24T11:04:28.946Z,17.40
2019-02-24T11:06:56.922Z,17.90
2019-02-24T11:09:24.907Z,18.10
2019-02-24T11:11:53.902Z,18.00
2019-02-24T11:14:24.791Z,17.40
2019-02-24T11:16:52.845Z,17.50
2019-02-24T11:19:20.722Z,17.60
2019-02-24T11:21:49.473Z,17.00
2019-02-24T11:24:17.459Z,17.43
2019-02-24T11:26:45.942Z,17.97
2019-02-24T11:29:14.073Z,18.43
2019-02-24T11:31:45.665Z,19.47
2019-02-24T11:34:18.123Z,19.60
2019-02-24T11:36:48.342Z,20.50
2019-02-24T11:39:17.920Z,23.40
2019-02-24T11:41:50.899Z,20.57
2019-02-24T11:44:18.952Z,20.57
2019-02-24T11:46:47.043Z,20.70
2019-02-24T11:49:17.254Z,21.10
2019-02-24T11:52:03.821Z,21.70
2019-02-24T11:54:30.356Z,22.50
2019-02-24T11:56:59.649Z,21.80
2019-02-24T11:59:27.824Z,23.43
2019-02-24T12:01:58.837Z,23.47
2019-02-24T12:04:28.206Z,22.77
2019-02-24T12:06:57.655Z,21.97
2019-02-24T12:09:25.627Z,22.17
2019-02-24T12:11:56.369Z,23.30
2019-02-24T12:14:28.185Z,20.20
2019-02-24T12:16:56.208Z,19.07
2019-02-24T12:19:26.017Z,19.27
2019-02-24T12:21:56.075Z,18.98
2019-02-24T12:24:24.057Z,21.02
2019-02-24T12:26:51.950Z,19.10
2019-02-24T12:29:27.351Z,21.97
2019-02-24T12:31:56.827Z,20.95
2019-02-24T12:34:24.982Z,20.72
2019-02-24T12:36:52.980Z,25.50
2019-02-24T12:39:21.385Z,21.15
2019-02-24T12:41:49.382Z,22.15
2019-02-24T12:44:17.510Z,24.23
2019-02-24T12:46:47.634Z,22.70
2019-02-24T12:49:15.919Z,21.42
2019-02-24T12:51:45.155Z,21.57
2019-02-24T12:54:14.937Z,20.75
2019-02-24T12:56:42.960Z,22.35
2019-02-24T12:59:12.284Z,21.25
2019-02-24T13:01:40.206Z,21.15
2019-02-24T13:04:08.193Z,22.70
2019-02-24T13:06:36.263Z,22.70
2019-02-24T13:09:06.575Z,21.05
2019-02-24T13:11:34.754Z,21.02
2019-02-24T13:14:06.151Z,22.00
2019-02-24T13:16:36.477Z,21.05
2019-02-24T13:19:06.944Z,27.75
2019-02-24T13:21:35.961Z,21.60
2019-02-24T13:24:03.976Z,20.37
2019-02-24T13:26:33.329Z,21.27
2019-02-24T13:29:03.054Z,24.80
2019-02-24T13:31:33.381Z,21.07
2019-02-24T13:34:13.001Z,20.60
2019-02-24T13:36:43.808Z,21.07
2019-02-24T13:39:11.615Z,20.37
2019-02-24T13:41:39.962Z,20.25
2019-02-24T13:44:08.738Z,19.80
2019-02-24T13:46:36.750Z,20.75
2019-02-24T13:49:04.742Z,20.05
2019-02-24T13:51:32.705Z,20.17
2019-02-24T13:54:00.594Z,18.60
2019-02-24T13:56:28.502Z,20.80
2019-02-24T13:58:56.417Z,21.10
2019-02-24T14:01:24.306Z,20.60
2019-02-24T14:03:52.183Z,19.90
2019-02-24T14:06:20.489Z,19.50
2019-02-24T14:08:48.467Z,20.85
2019-02-24T14:11:16.402Z,17.80
2019-02-24T14:13:44.270Z,20.17
2019-02-24T14:16:12.382Z,18.25
2019-02-24T14:18:40.278Z,19.27
2019-02-24T14:21:08.189Z,18.52
2019-02-24T14:23:36.144Z,19.10
2019-02-24T14:26:04.063Z,17.80
2019-02-24T14:28:31.923Z,18.65
2019-02-24T14:30:59.845Z,18.45
2019-02-24T14:33:27.722Z,17.60
2019-02-24T14:35:55.600Z,17.67
2019-02-24T14:38:23.491Z,19.48
2019-02-24T14:40:51.411Z,18.32
2019-02-24T14:43:19.346Z,18.15
2019-02-24T14:46:09.068Z,18.85
2019-02-24T14:48:37.214Z,17.23
2019-02-24T14:51:05.153Z,18.35
2019-02-24T14:53:33.096Z,19.55
2019-02-24T14:56:00.990Z,19.60
2019-02-24T14:58:28.947Z,19.20
2019-02-24T15:00:56.893Z,18.35
2019-02-24T15:03:24.919Z,17.95
2019-02-24T15:05:52.765Z,18.77
2019-02-24T15:08:20.686Z,17.85
2019-02-24T15:10:48.826Z,18.82
2019-02-24T15:13:16.734Z,19.25
2019-02-24T15:15:44.646Z,17.92
2019-02-24T15:18:12.532Z,18.75
2019-02-24T15:20:40.468Z,18.80
2019-02-24T15:23:08.400Z,19.35
2019-02-24T15:25:36.324Z,19.42
2019-02-24T15:28:04.290Z,18.67
2019-02-24T15:30:32.204Z,18.23
2019-02-24T15:33:00.180Z,20.05
2019-02-24T15:35:28.096Z,18.25
2019-02-24T15:37:56.002Z,17.90
2019-02-24T15:40:23.953Z,19.75
2019-02-24T15:42:51.846Z,19.40
2019-02-24T15:45:19.839Z,19.05
2019-02-24T15:47:47.680Z,18.60
2019-02-24T15:50:15.571Z,20.90
2019-02-24T15:52:43.466Z,19.62
2019-02-24T15:55:11.462Z,19.90
2019-02-24T15:57:39.327Z,20.70
2019-02-24T16:00:08.639Z,20.75
2019-02-24T16:02:36.502Z,20.10
2019-02-24T16:05:04.733Z,20.37
2019-02-24T16:07:32.619Z,20.30
2019-02-24T16:10:00.564Z,21.07
2019-02-24T16:12:28.480Z,20.92
2019-02-24T16:14:56.567Z,20.65
2019-02-24T16:17:24.488Z,21.02
2019-02-24T16:19:52.453Z,22.42
2019-02-24T16:22:20.357Z,20.70
2019-02-24T16:24:48.225Z,20.08
2019-02-24T16:27:16.256Z,23.02
2019-02-24T16:29:44.111Z,19.82
2019-02-24T16:32:12.141Z,24.30
2019-02-24T16:34:40.097Z,21.35
2019-02-24T16:37:08.027Z,21.77
2019-02-24T16:39:35.975Z,22.62
2019-02-24T16:42:04.046Z,19.35
2019-02-24T16:44:31.906Z,20.95
2019-02-24T16:47:00.067Z,22.42
2019-02-24T16:49:28.058Z,22.85
2019-02-24T16:51:55.927Z,21.00
2019-02-24T16:54:23.839Z,21.42
2019-02-24T16:56:51.735Z,20.08
2019-02-24T16:59:19.602Z,20.97
2019-02-24T17:01:47.532Z,20.65
2019-02-24T17:04:15.398Z,20.02
2019-02-24T17:06:43.282Z,18.57
2019-02-24T17:09:11.226Z,19.95
2019-02-24T17:11:39.231Z,21.80
2019-02-24T17:14:07.155Z,21.50
2019-02-24T17:16:35.029Z,21.77
2019-02-24T17:19:02.929Z,19.67
2019-02-24T17:21:30.882Z,20.27
2019-02-24T17:23:58.864Z,20.90
2019-02-24T17:26:26.834Z,21.87
2019-02-24T17:28:54.836Z,20.77
2019-02-24T17:31:28.276Z,20.55
2019-02-24T17:33:52.378Z,24.00
2019-02-24T17:36:20.406Z,21.37
2019-02-24T17:38:48.269Z,20.80
2019-02-24T17:41:16.244Z,21.50
2019-02-24T17:43:44.145Z,22.42
2019-02-24T17:46:12.070Z,22.13
2019-02-24T17:48:40.063Z,20.57
2019-02-24T17:51:07.987Z,20.97
2019-02-24T17:53:35.875Z,21.77
2019-02-24T17:56:04.219Z,22.37
2019-02-24T17:58:32.086Z,21.85
2019-02-24T18:01:02.020Z,22.80
2019-02-24T18:03:38.807Z,25.82
2019-02-24T18:05:59.617Z,24.00
2019-02-24T18:08:28.434Z,23.42
2019-02-24T18:10:56.521Z,21.82
2019-02-24T18:13:24.432Z,21.87
2019-02-24T18:15:52.416Z,21.90
2019-02-24T18:18:20.270Z,21.55
2019-02-24T18:20:48.255Z,22.48
2019-02-24T18:23:16.152Z,24.98
2019-02-24T18:25:44.214Z,21.50
2019-02-24T18:28:12.247Z,27.25
2019-02-24T18:30:40.442Z,24.43
2019-02-24T18:33:08.389Z,26.60
2019-02-24T18:35:36.529Z,23.57
2019-02-24T18:38:05.318Z,21.73
2019-02-24T18:40:34.855Z,22.50
2019-02-24T18:43:06.720Z,21.75
2019-02-24T18:45:34.779Z,24.30
2019-02-24T18:48:04.838Z,20.75
2019-02-24T18:50:33.135Z,20.85
2019-02-24T18:53:01.507Z,20.97
2019-02-24T18:55:29.981Z,21.52
2019-02-24T18:58:00.254Z,20.70
2019-02-24T19:00:28.686Z,21.90
2019-02-24T19:02:58.904Z,22.60
2019-02-24T19:05:26.894Z,20.02
2019-02-24T19:07:54.873Z,24.55
2019-02-24T19:10:25.742Z,22.10
2019-02-24T19:12:54.203Z,25.05
2019-02-24T19:15:24.493Z,24.35
2019-02-24T19:17:54.703Z,20.75
2019-02-24T19:20:22.985Z,21.00
2019-02-24T19:22:51.577Z,21.48
2019-02-24T19:25:22.241Z,21.40
2019-02-24T19:27:52.459Z,23.90
2019-02-24T19:30:20.507Z,20.35
2019-02-24T19:32:50.740Z,20.90
2019-02-24T19:35:19.468Z,23.65
2019-02-24T19:37:49.535Z,21.60
2019-02-24T19:40:21.625Z,21.23
2019-02-24T19:42:49.947Z,22.10
2019-02-24T19:45:18.030Z,25.02
2019-02-24T19:47:46.443Z,22.40
2019-02-24T19:50:15.497Z,20.77
2019-02-24T19:52:43.385Z,22.25
2019-02-24T19:55:12.355Z,22.48
2019-02-24T19:57:40.748Z,28.15
2019-02-24T20:00:11.612Z,24.20
2019-02-24T20:02:40.757Z,27.40
2019-02-24T20:05:11.532Z,26.55
2019-02-24T20:07:40.935Z,27.60
2019-02-24T20:10:09.247Z,25.65
2019-02-24T20:12:38.035Z,29.18
2019-02-24T20:15:07.626Z,24.90
2019-02-24T20:17:35.581Z,24.43
2019-02-24T20:20:03.937Z,22.42
2019-02-24T20:22:32.542Z,23.55
2019-02-24T20:25:02.516Z,23.90
2019-02-24T20:27:30.509Z,21.05
2019-02-24T20:29:58.552Z,21.93
2019-02-24T20:32:26.667Z,23.90
2019-02-24T20:34:56.932Z,22.90
2019-02-24T20:37:25.362Z,24.18
2019-02-24T20:39:55.725Z,23.75
2019-02-24T20:42:25.015Z,22.65
2019-02-24T20:44:53.576Z,23.05
2019-02-24T20:47:21.550Z,23.25
2019-02-24T20:49:49.918Z,23.90
2019-02-24T20:52:20.536Z,25.80
2019-02-24T20:54:48.558Z,22.05
2019-02-24T20:57:18.315Z,25.60
2019-02-24T20:59:47.520Z,25.37
2019-02-24T21:02:17.170Z,21.85
2019-02-24T21:04:45.200Z,24.30
2019-02-24T21:07:30.474Z,22.37
2019-02-24T21:09:58.439Z,23.50
2019-02-24T21:12:31.450Z,21.85
2019-02-24T21:15:01.194Z,21.95
2019-02-24T21:17:30.361Z,23.90
2019-02-24T21:19:58.497Z,23.00
2019-02-24T21:22:27.811Z,23.45
2019-02-24T21:24:55.895Z,22.98
2019-02-24T21:27:23.851Z,23.65
2019-02-24T21:29:56.684Z,22.93
2019-02-24T21:32:24.590Z,24.12
2019-02-24T21:34:52.672Z,21.15
2019-02-24T21:37:22.667Z,23.18
2019-02-24T21:39:51.200Z,23.65
2019-02-24T21:42:19.780Z,23.30
2019-02-24T21:44:47.751Z,22.40
2019-02-24T21:47:15.706Z,21.23
2019-02-24T21:49:44.705Z,23.00
2019-02-24T21:52:12.700Z,24.98
2019-02-24T21:54:40.697Z,21.93
2019-02-24T21:57:09.476Z,24.55
2019-02-24T21:59:39.948Z,24.18
2019-02-24T22:02:09.502Z,22.13
2019-02-24T22:04:37.411Z,21.52
2019-02-24T22:07:07.609Z,22.85
2019-02-24T22:09:36.417Z,22.05
2019-02-24T22:12:04.420Z,23.50
2019-02-24T22:14:32.386Z,23.55
2019-02-24T22:17:01.403Z,22.10
2019-02-24T22:19:31.233Z,23.25
2019-02-24T22:21:59.230Z,20.65
2019-02-24T22:24:28.735Z,22.62
2019-02-24T22:26:56.805Z,24.12
2019-02-24T22:29:26.766Z,22.70
2019-02-24T22:31:55.733Z,24.45
2019-02-24T22:34:23.839Z,21.55
2019-02-24T22:36:51.869Z,23.65
2019-02-24T22:39:19.739Z,22.67
2019-02-24T22:41:47.722Z,23.57
2019-02-24T22:44:15.683Z,23.67
2019-02-24T22:46:44.033Z,24.82
2019-02-24T22:49:15.658Z,25.75
2019-02-24T22:51:46.281Z,22.75
2019-02-24T22:54:14.238Z,22.32
2019-02-24T22:56:45.436Z,23.10
2019-02-24T22:59:13.987Z,19.37
2019-02-24T23:01:44.354Z,22.27
2019-02-24T23:04:13.675Z,21.73
2019-02-24T23:06:41.629Z,21.87
2019-02-24T23:09:11.869Z,22.62
2019-02-24T23:11:39.789Z,24.10
2019-02-24T23:14:07.709Z,22.13
2019-02-24T23:16:35.998Z,19.82
2019-02-24T23:19:06.497Z,23.22
2019-02-24T23:21:34.436Z,20.57
2019-02-24T23:24:03.021Z,22.25
2019-02-24T23:26:31.016Z,21.80
2019-02-24T23:28:58.975Z,20.35
2019-02-24T23:31:29.061Z,21.17
2019-02-24T23:34:01.972Z,19.95
2019-02-24T23:36:31.580Z,19.80
2019-02-24T23:38:59.570Z,23.30
2019-02-24T23:41:35.761Z,20.43
2019-02-24T23:44:03.700Z,21.30
2019-02-24T23:46:31.686Z,21.95
2019-02-24T23:49:02.002Z,22.10
2019-02-24T23:51:33.705Z,20.37
2019-02-24T23:54:01.646Z,22.45
2019-02-24T23:56:29.717Z,24.02
2019-02-24T23:58:59.955Z,21.02
